Terminal Aerodrome Forecast
Issued by NWS Bismarck, ND

Home | Current Version | Previous Version | Graphics & Text | Print | Product List | Glossary On
Versions: 1 2 3 4 5 6 7 8 9 10 11 12 13 14 15 16 17
000
FTUS43 KBIS 302320
TAFISN
TAF
KISN 302320Z 3100/3124 33010KT P6SM BKN200
     FM310200 34005KT P6SM BKN200
     FM310600 36004KT P6SM VCTS BKN120CB
     FM311000 31009KT P6SM BKN080
     FM311100 30010KT P6SM SCT060
     FM311400 28013G20KT P6SM FEW250=

USA.gov is the U.S. government's official web portal to all federal, state and local government web resources and services.